Time;durP1;ratioP1;P1;durP2;ratioP2;P2;SDS_P1;SDS_P2;PMS_P1;PMS_P2;Temp;Humidity;BMP_temperature;BMP_pressure;BME280_temperature;BME280_humidity;BME280_pressure;Samples;Min_cycle;Max_cycle;Signal;HPM_P1;HPM_P2
2022/01/18 00:00:46;;;;;;;66.38;9.35;;;7.20;99.90;;;;;;4879587;29;20754;-88
2022/01/18 00:03:12;;;;;;;75.15;10.07;;;7.20;99.90;;;;;;4863430;29;20092;-89
2022/01/18 00:05:38;;;;;;;78.25;10.00;;;7.10;99.90;;;;;;4879141;29;20452;-89
2022/01/18 00:08:04;;;;;;;75.90;10.38;;;7.10;99.90;;;;;;4870775;29;20060;-89
2022/01/18 00:10:32;;;;;;;69.05;9.80;;;7.10;99.90;;;;;;4893547;29;20041;-89
2022/01/18 00:18:08;;;;;;;91.72;10.55;;;7.00;99.90;;;;;;4879225;29;20132;-89
2022/01/18 00:23:24;;;;;;;84.88;8.82;;;6.90;99.90;;;;;;4869344;29;20068;-88
2022/01/18 00:25:54;;;;;;;60.67;9.75;;;6.90;99.90;;;;;;4855412;29;20373;-89
2022/01/18 00:28:21;;;;;;;72.93;8.93;;;6.90;99.90;;;;;;4845200;29;20064;-89
2022/01/18 00:33:51;;;;;;;72.57;10.00;;;6.70;99.90;;;;;;4877221;29;20053;-89
2022/01/18 00:36:35;;;;;;;68.20;9.55;;;6.70;99.90;;;;;;4862215;29;20101;-89
2022/01/18 00:39:01;;;;;;;83.32;11.45;;;6.60;99.90;;;;;;4860375;29;20052;-89
2022/01/18 00:41:26;;;;;;;60.08;8.27;;;6.60;99.90;;;;;;4860730;29;20059;-89
2022/01/18 00:43:53;;;;;;;52.72;8.10;;;6.60;99.90;;;;;;4878066;29;20040;-90
2022/01/18 00:46:20;;;;;;;64.97;10.00;;;6.60;99.90;;;;;;4862401;29;20116;-89
2022/01/18 00:48:46;;;;;;;71.75;9.85;;;6.60;99.90;;;;;;4859279;29;20041;-88
2022/01/18 00:51:13;;;;;;;74.43;8.80;;;6.60;99.90;;;;;;4844226;29;20053;-89
2022/01/18 00:53:42;;;;;;;75.05;9.05;;;6.60;99.90;;;;;;4856226;29;20052;-89
2022/01/18 00:58:39;;;;;;;63.45;9.57;;;6.60;99.90;;;;;;4876805;29;20191;-89
2022/01/18 01:01:05;;;;;;;62.33;8.57;;;6.60;99.90;;;;;;4861537;29;20084;-89
2022/01/18 01:03:30;;;;;;;59.17;8.63;;;6.60;99.90;;;;;;4862268;29;20084;-87
2022/01/18 01:05:56;;;;;;;70.95;8.80;;;6.50;99.90;;;;;;4877804;29;20049;-89
2022/01/18 01:08:21;;;;;;;62.10;8.80;;;6.50;99.90;;;;;;4876445;29;20099;-88
2022/01/18 01:10:47;;;;;;;70.28;8.55;;;6.40;99.90;;;;;;4862157;29;20048;-90
2022/01/18 01:13:14;;;;;;;76.15;10.27;;;6.40;99.90;;;;;;4862189;29;20435;-87
2022/01/18 01:16:09;;;;;;;61.15;9.35;;;6.30;99.90;;;;;;4877320;29;20131;-89
2022/01/18 01:32:54;;;;;;;77.70;10.35;;;6.20;99.90;;;;;;4875744;29;20037;-89
2022/01/18 01:35:29;;;;;;;74.93;10.05;;;6.10;99.90;;;;;;4871514;29;20053;-89
2022/01/18 01:43:31;;;;;;;74.35;10.50;;;6.10;99.90;;;;;;4892528;29;20120;-89
2022/01/18 01:45:58;;;;;;;70.15;10.45;;;6.10;99.90;;;;;;4862205;29;20103;-89
2022/01/18 01:48:25;;;;;;;60.55;9.93;;;6.00;99.90;;;;;;4861830;29;20044;-89
2022/01/18 01:51:02;;;;;;;76.60;10.27;;;6.10;99.90;;;;;;4860084;29;20095;-89
2022/01/18 01:53:29;;;;;;;76.88;10.27;;;6.00;99.90;;;;;;4848045;29;20440;-89
2022/01/18 01:55:54;;;;;;;63.08;9.27;;;6.00;99.90;;;;;;4853060;29;20654;-89
2022/01/18 01:58:22;;;;;;;61.55;9.98;;;6.00;99.90;;;;;;4861165;29;20116;-89
2022/01/18 02:00:50;;;;;;;81.15;11.40;;;6.00;99.90;;;;;;4861418;29;20418;-90
2022/01/18 02:03:16;;;;;;;92.60;10.15;;;6.00;99.90;;;;;;4861674;29;20084;-89
2022/01/18 02:05:42;;;;;;;84.22;12.88;;;6.00;99.90;;;;;;4861485;29;20079;-89
2022/01/18 02:08:07;;;;;;;89.60;10.85;;;6.00;99.90;;;;;;4860362;29;20591;-88
2022/01/18 02:10:38;;;;;;;72.50;10.05;;;6.00;99.90;;;;;;4859366;29;20044;-89
2022/01/18 02:13:05;;;;;;;62.80;10.30;;;6.00;99.90;;;;;;4861334;29;20080;-88
2022/01/18 02:15:32;;;;;;;76.53;10.43;;;6.00;99.90;;;;;;4877069;29;20075;-89
2022/01/18 02:23:29;;;;;;;61.65;10.15;;;6.00;99.90;;;;;;4874834;29;20049;-89
2022/01/18 02:25:56;;;;;;;71.68;10.43;;;6.00;99.90;;;;;;4852889;29;20083;-89
2022/01/18 02:28:24;;;;;;;86.10;11.82;;;6.00;99.90;;;;;;4850726;29;20097;-89
2022/01/18 02:30:50;;;;;;;106.50;11.40;;;6.00;99.90;;;;;;4842634;29;20124;-89
2022/01/18 02:33:17;;;;;;;87.00;10.55;;;6.10;99.90;;;;;;4842915;29;20041;-90
2022/01/18 02:35:44;;;;;;;79.90;11.25;;;6.00;99.90;;;;;;4843211;29;20093;-89
2022/01/18 02:38:10;;;;;;;51.08;9.50;;;6.00;99.90;;;;;;4844130;29;20139;-89
2022/01/18 02:40:35;;;;;;;70.68;9.50;;;6.00;99.90;;;;;;4874817;29;20060;-89
2022/01/18 02:43:46;;;;;;;86.35;11.00;;;6.10;99.90;;;;;;4861810;29;20049;-89
2022/01/18 02:45:52;;;;;;;67.32;9.85;;;6.00;99.90;;;;;;4876512;29;20518;-89
2022/01/18 02:48:18;;;;;;;55.22;9.13;;;6.10;99.90;;;;;;4858188;29;20065;-89
2022/01/18 02:50:44;;;;;;;58.92;10.38;;;6.00;99.90;;;;;;4842591;29;20049;-88
2022/01/18 02:53:10;;;;;;;64.47;8.65;;;6.10;99.90;;;;;;4849800;29;20445;-88
2022/01/18 02:55:36;;;;;;;78.95;9.15;;;6.00;99.90;;;;;;4858603;29;20420;-89
2022/01/18 02:58:06;;;;;;;77.40;9.00;;;6.00;99.90;;;;;;4859742;29;20045;-88
2022/01/18 03:00:45;;;;;;;48.00;9.02;;;6.00;99.90;;;;;;4843216;29;20045;-89
2022/01/18 03:03:15;;;;;;;52.03;7.97;;;6.00;99.90;;;;;;4845301;29;20045;-89
2022/01/18 03:05:42;;;;;;;65.47;9.13;;;6.00;99.90;;;;;;4861032;29;20045;-89
2022/01/18 03:08:10;;;;;;;61.00;9.50;;;6.00;99.90;;;;;;4859790;29;20427;-89
2022/01/18 03:10:37;;;;;;;48.22;8.35;;;5.90;99.90;;;;;;4877998;29;20053;-89
2022/01/18 03:13:05;;;;;;;73.05;10.60;;;6.00;99.90;;;;;;4864339;29;20516;-89
2022/01/18 03:15:32;;;;;;;60.05;8.88;;;6.00;99.90;;;;;;4864992;29;20415;-90
2022/01/18 03:17:57;;;;;;;57.42;9.98;;;6.00;99.90;;;;;;4879692;29;20044;-89
2022/01/18 03:20:23;;;;;;;64.60;8.98;;;6.00;99.90;;;;;;4864662;29;20083;-88
2022/01/18 03:22:50;;;;;;;59.63;9.00;;;6.00;99.90;;;;;;4860044;29;20076;-88
2022/01/18 03:28:05;;;;;;;50.08;7.88;;;6.00;99.90;;;;;;4879109;29;20538;-88
2022/01/18 03:30:42;;;;;;;42.75;7.60;;;6.00;99.90;;;;;;4864028;29;20488;-89
2022/01/18 03:33:14;;;;;;;63.65;7.82;;;6.00;99.90;;;;;;4864107;29;20499;-88
2022/01/18 03:35:41;;;;;;;41.50;7.47;;;6.00;99.90;;;;;;4864537;29;20863;-89
2022/01/18 03:38:07;;;;;;;46.90;8.30;;;6.00;99.90;;;;;;4863467;29;20057;-87
2022/01/18 03:40:33;;;;;;;39.65;6.95;;;6.00;99.90;;;;;;4862245;29;20555;-89
2022/01/18 03:43:01;;;;;;;58.70;7.45;;;6.10;99.90;;;;;;4862160;29;20053;-89
2022/01/18 03:45:31;;;;;;;53.15;8.40;;;6.10;99.90;;;;;;4863550;29;20040;-89
2022/01/18 03:47:59;;;;;;;51.10;8.27;;;6.10;99.90;;;;;;4861323;29;20049;-89
2022/01/18 03:50:26;;;;;;;55.47;7.88;;;6.10;99.90;;;;;;4862995;29;20088;-89
2022/01/18 03:52:52;;;;;;;47.47;7.95;;;6.10;99.90;;;;;;4890987;29;20044;-89
2022/01/18 03:55:20;;;;;;;44.30;7.18;;;6.10;99.90;;;;;;4883082;29;20499;-89
2022/01/18 03:57:47;;;;;;;46.25;7.43;;;6.10;99.90;;;;;;4876164;29;20444;-89
2022/01/18 04:00:16;;;;;;;37.63;6.70;;;6.10;99.90;;;;;;4892758;29;20508;-91
2022/01/18 04:02:42;;;;;;;42.17;6.85;;;6.10;99.90;;;;;;4863232;29;20048;-89
2022/01/18 04:05:08;;;;;;;43.50;6.43;;;6.20;99.90;;;;;;4863447;29;20049;-89
2022/01/18 04:07:34;;;;;;;48.03;7.63;;;6.20;99.90;;;;;;4862694;29;20407;-89
2022/01/18 04:09:59;;;;;;;41.45;7.63;;;6.20;99.90;;;;;;4877556;29;20052;-89
2022/01/18 04:12:25;;;;;;;44.40;7.07;;;6.20;99.90;;;;;;4848068;29;20057;-89
2022/01/18 04:14:50;;;;;;;42.90;6.90;;;6.20;99.90;;;;;;4844691;29;20124;-89
2022/01/18 04:17:44;;;;;;;45.15;7.28;;;6.20;99.90;;;;;;4844676;29;20057;-89
2022/01/18 04:30:49;;;;;;;35.38;6.47;;;6.20;99.90;;;;;;4884066;29;20052;-89
2022/01/18 04:33:15;;;;;;;43.15;6.32;;;6.20;99.90;;;;;;4859920;29;20148;-89
2022/01/18 04:35:41;;;;;;;38.72;6.57;;;6.20;99.90;;;;;;4878536;29;20104;-88
2022/01/18 04:38:06;;;;;;;41.47;6.53;;;6.10;99.90;;;;;;4878311;29;20041;-90
2022/01/18 04:40:33;;;;;;;32.88;7.20;;;6.10;99.90;;;;;;4861481;29;20312;-88
2022/01/18 04:43:07;;;;;;;43.45;6.85;;;6.00;99.90;;;;;;4878154;29;20067;-88
2022/01/18 04:48:35;;;;;;;31.35;5.55;;;6.10;99.90;;;;;;4893582;29;20445;-90
2022/01/18 04:51:06;;;;;;;44.88;5.65;;;6.10;99.90;;;;;;4862474;29;20094;-89
2022/01/18 04:53:34;;;;;;;31.20;5.57;;;6.00;99.90;;;;;;4862500;29;20048;-90
2022/01/18 04:56:05;;;;;;;36.40;6.30;;;6.10;99.90;;;;;;4869751;29;20077;-90
2022/01/18 04:58:31;;;;;;;31.02;5.88;;;6.00;99.90;;;;;;4875153;29;20049;-89
2022/01/18 05:00:59;;;;;;;39.28;6.88;;;6.00;99.90;;;;;;4886844;29;20053;-89
2022/01/18 05:03:26;;;;;;;35.28;6.07;;;6.00;99.90;;;;;;4862600;29;20057;-89
2022/01/18 05:05:55;;;;;;;31.42;6.35;;;5.90;99.90;;;;;;4861721;29;20051;-89
2022/01/18 05:08:21;;;;;;;30.70;5.63;;;5.90;99.90;;;;;;4872891;29;20060;-89
2022/01/18 05:10:53;;;;;;;40.53;6.38;;;5.90;99.90;;;;;;4855013;29;20104;-89
2022/01/18 05:23:34;;;;;;;28.80;6.68;;;5.90;99.90;;;;;;4885203;29;20042;-88
2022/01/18 05:26:00;;;;;;;31.95;6.72;;;5.90;99.90;;;;;;4855661;29;20045;-88
2022/01/18 05:28:25;;;;;;;32.45;6.22;;;5.90;99.90;;;;;;4862639;29;20127;-88
2022/01/18 05:30:51;;;;;;;28.48;5.63;;;5.90;99.90;;;;;;4870841;29;20053;-88
2022/01/18 05:33:18;;;;;;;30.02;6.80;;;5.90;99.90;;;;;;4849225;29;20045;-89
2022/01/18 05:35:44;;;;;;;33.25;6.70;;;5.90;99.90;;;;;;4855867;29;20054;-89
2022/01/18 05:38:10;;;;;;;35.70;6.60;;;6.00;99.90;;;;;;4855990;29;20539;-88
2022/01/18 05:40:37;;;;;;;31.98;5.65;;;6.00;99.90;;;;;;4861932;29;20045;-89
2022/01/18 05:43:03;;;;;;;27.58;6.72;;;6.00;99.90;;;;;;4858182;29;20408;-88
2022/01/18 05:45:29;;;;;;;23.20;5.40;;;6.00;99.90;;;;;;4858185;29;20045;-88
2022/01/18 05:47:55;;;;;;;21.98;5.22;;;6.00;99.90;;;;;;4857477;29;20488;-89
2022/01/18 05:50:20;;;;;;;25.63;5.20;;;6.00;99.90;;;;;;4857352;29;20547;-89
2022/01/18 05:52:46;;;;;;;27.20;7.22;;;6.00;99.90;;;;;;4884722;29;20499;-88
2022/01/18 05:55:11;;;;;;;24.00;6.18;;;6.00;99.90;;;;;;4856714;29;20132;-89
2022/01/18 05:57:38;;;;;;;21.42;5.57;;;6.00;99.90;;;;;;4858507;29;20032;-89
2022/01/18 06:00:07;;;;;;;35.88;11.68;;;6.00;99.90;;;;;;4862308;29;20069;-89
2022/01/18 06:02:48;;;;;;;56.67;23.33;;;6.10;99.90;;;;;;4858699;29;20056;-89
2022/01/18 06:07:58;;;;;;;29.60;7.93;;;6.10;99.90;;;;;;4889364;29;20053;-89
2022/01/18 06:10:24;;;;;;;30.17;7.00;;;6.00;99.90;;;;;;4854114;29;20493;-89
2022/01/18 06:12:50;;;;;;;29.92;7.75;;;6.00;99.90;;;;;;4855247;29;20042;-88
2022/01/18 06:15:15;;;;;;;20.55;7.22;;;6.10;99.90;;;;;;4854029;29;20047;-89
2022/01/18 06:17:41;;;;;;;28.00;7.35;;;6.10;99.90;;;;;;4873715;29;20048;-89
2022/01/18 06:20:07;;;;;;;23.50;5.60;;;6.10;99.90;;;;;;4851790;29;20092;-88
2022/01/18 06:22:33;;;;;;;28.08;6.43;;;6.10;99.90;;;;;;4874179;29;20049;-89
2022/01/18 06:24:59;;;;;;;22.20;5.88;;;6.00;99.90;;;;;;4856851;29;20060;-89
2022/01/18 06:27:24;;;;;;;30.00;6.95;;;6.00;99.90;;;;;;4858254;29;20088;-88
2022/01/18 06:29:50;;;;;;;26.65;6.97;;;6.00;99.90;;;;;;4874063;29;20408;-89
2022/01/18 06:32:16;;;;;;;25.15;6.00;;;6.00;99.90;;;;;;4829905;29;20053;-89
2022/01/18 06:34:42;;;;;;;30.88;7.03;;;6.00;99.90;;;;;;4849185;29;20084;-88
2022/01/18 06:37:07;;;;;;;24.23;8.18;;;6.00;99.90;;;;;;4846135;29;20037;-89
2022/01/18 06:39:33;;;;;;;20.25;7.28;;;6.00;99.90;;;;;;4852833;29;20056;-89
2022/01/18 06:41:59;;;;;;;29.67;6.18;;;6.00;99.90;;;;;;4866382;29;20500;-90
2022/01/18 06:44:25;;;;;;;29.67;6.45;;;6.10;99.90;;;;;;4859392;29;20052;-90
2022/01/18 06:46:52;;;;;;;26.00;7.40;;;6.10;99.90;;;;;;4861908;29;20064;-89
2022/01/18 06:49:17;;;;;;;33.78;7.43;;;6.10;99.90;;;;;;4876959;29;20040;-89
2022/01/18 06:51:43;;;;;;;28.42;6.47;;;6.10;99.90;;;;;;4862288;29;20476;-89
2022/01/18 06:54:14;;;;;;;26.88;7.22;;;6.00;99.90;;;;;;4859089;29;20067;-88
2022/01/18 06:56:43;;;;;;;31.50;7.00;;;6.00;99.90;;;;;;4861457;29;20071;-89
2022/01/18 06:59:09;;;;;;;25.10;6.75;;;5.90;99.90;;;;;;4861773;29;20087;-88
2022/01/18 07:01:35;;;;;;;24.95;6.75;;;5.90;99.90;;;;;;4855820;29;20077;-90
2022/01/18 07:04:00;;;;;;;22.05;6.95;;;5.90;99.90;;;;;;4866277;29;20045;-89
2022/01/18 07:06:26;;;;;;;26.45;6.57;;;5.90;99.90;;;;;;4877252;29;20053;-90
2022/01/18 07:08:51;;;;;;;26.83;6.97;;;5.90;99.90;;;;;;4860896;29;20088;-90
2022/01/18 07:11:17;;;;;;;30.00;8.70;;;5.80;99.90;;;;;;4836709;29;20060;-91
2022/01/18 07:13:43;;;;;;;34.67;8.43;;;5.70;99.90;;;;;;4858657;29;20481;-89
2022/01/18 07:16:08;;;;;;;21.85;6.88;;;5.70;99.90;;;;;;4860937;29;20135;-89
2022/01/18 07:18:34;;;;;;;33.92;8.57;;;5.70;99.90;;;;;;4855593;29;20690;-89
2022/01/18 07:20:59;;;;;;;29.60;8.10;;;5.60;99.90;;;;;;4855820;29;20080;-89
2022/01/18 07:23:25;;;;;;;29.73;8.05;;;5.70;99.90;;;;;;4877218;29;20124;-89
2022/01/18 07:25:52;;;;;;;24.33;6.95;;;5.70;99.90;;;;;;4854277;29;20136;-89
2022/01/18 07:28:19;;;;;;;27.77;7.32;;;5.80;99.90;;;;;;4858231;29;20538;-89
2022/01/18 07:30:45;;;;;;;23.48;7.70;;;5.80;99.90;;;;;;4880886;29;20037;-88
2022/01/18 07:33:14;;;;;;;28.73;7.38;;;5.70;99.90;;;;;;4845547;29;20060;-89
2022/01/18 07:35:42;;;;;;;27.17;7.05;;;5.80;99.90;;;;;;4848675;29;20815;-89
2022/01/18 07:38:12;;;;;;;31.15;7.55;;;5.80;99.90;;;;;;4843100;29;20663;-89
2022/01/18 07:40:39;;;;;;;27.02;8.23;;;5.80;99.90;;;;;;4850861;29;20127;-89
2022/01/18 07:43:05;;;;;;;30.73;7.60;;;5.80;99.90;;;;;;4874874;29;20133;-89
2022/01/18 07:45:31;;;;;;;25.42;8.10;;;5.80;99.90;;;;;;4845731;29;20124;-90
2022/01/18 07:47:57;;;;;;;25.92;7.47;;;5.90;99.90;;;;;;4849014;29;20049;-89
2022/01/18 07:50:23;;;;;;;23.20;7.15;;;5.90;99.90;;;;;;4856975;29;20048;-88
2022/01/18 07:52:49;;;;;;;24.85;7.72;;;5.90;99.90;;;;;;4860330;29;20053;-89
2022/01/18 07:55:15;;;;;;;31.35;7.97;;;5.90;99.90;;;;;;4858614;29;20072;-90
2022/01/18 07:57:43;;;;;;;20.80;6.57;;;5.90;99.90;;;;;;4849597;29;20724;-89
2022/01/18 08:00:10;;;;;;;28.48;7.20;;;5.90;99.90;;;;;;4856848;29;20097;-89
2022/01/18 08:02:37;;;;;;;32.70;7.82;;;6.00;99.90;;;;;;4871610;29;20124;-89
2022/01/18 08:05:07;;;;;;;22.88;6.90;;;6.00;99.90;;;;;;4860527;29;20516;-92
2022/01/18 08:07:33;;;;;;;20.55;6.75;;;6.00;99.90;;;;;;4854715;29;20057;-91
2022/01/18 08:09:59;;;;;;;22.70;6.35;;;6.10;99.90;;;;;;4863487;29;20045;-88
2022/01/18 08:12:24;;;;;;;24.88;6.30;;;6.10;99.90;;;;;;4858300;29;20514;-88
2022/01/18 08:14:53;;;;;;;23.88;5.93;;;6.10;99.90;;;;;;4862173;29;20049;-88
2022/01/18 08:17:20;;;;;;;22.73;5.63;;;6.10;99.90;;;;;;4875548;29;20053;-89
2022/01/18 08:19:45;;;;;;;21.05;5.57;;;6.10;99.90;;;;;;4884034;29;20147;-89
2022/01/18 08:22:11;;;;;;;23.55;5.40;;;6.20;99.90;;;;;;4863018;29;20547;-88
2022/01/18 08:24:37;;;;;;;28.30;4.88;;;6.10;99.90;;;;;;4863452;29;20037;-88
2022/01/18 08:27:04;;;;;;;19.90;5.40;;;6.20;99.90;;;;;;4860645;29;20044;-87
2022/01/18 08:29:30;;;;;;;24.60;5.35;;;6.20;99.90;;;;;;4852467;29;20041;-91
2022/01/18 08:31:56;;;;;;;26.20;5.20;;;6.20;99.90;;;;;;4844810;29;20052;-91
2022/01/18 08:34:22;;;;;;;18.92;4.53;;;6.20;99.90;;;;;;4845255;29;20036;-90
2022/01/18 08:36:50;;;;;;;19.35;5.18;;;6.20;99.90;;;;;;4865969;29;20052;-89
2022/01/18 08:39:15;;;;;;;21.33;4.57;;;6.30;99.90;;;;;;4861239;29;20044;-90
2022/01/18 08:41:41;;;;;;;18.30;4.85;;;6.30;99.90;;;;;;4857238;29;20396;-90
2022/01/18 08:44:07;;;;;;;19.70;5.30;;;6.40;99.90;;;;;;4855058;29;20041;-89
2022/01/18 08:46:32;;;;;;;21.23;5.72;;;6.50;99.90;;;;;;4862498;29;20186;-87
2022/01/18 08:48:58;;;;;;;20.42;5.93;;;6.50;99.90;;;;;;4864803;29;20040;-87
2022/01/18 08:51:24;;;;;;;27.80;5.97;;;6.60;99.90;;;;;;4861374;29;20526;-87
2022/01/18 08:53:50;;;;;;;20.60;5.10;;;6.70;99.90;;;;;;4859543;29;20044;-87
2022/01/18 08:56:20;;;;;;;18.90;4.97;;;6.60;99.90;;;;;;4877533;29;20097;-88
2022/01/18 08:58:47;;;;;;;23.58;5.85;;;6.60;99.90;;;;;;4852243;29;20072;-89
2022/01/18 09:01:13;;;;;;;18.50;5.60;;;6.70;99.90;;;;;;4870908;29;20044;-89
2022/01/18 09:03:39;;;;;;;27.35;7.45;;;6.80;99.90;;;;;;4861834;29;20059;-89
2022/01/18 09:06:06;;;;;;;22.80;6.53;;;6.80;99.90;;;;;;4877681;29;20053;-88
2022/01/18 09:08:35;;;;;;;22.00;6.28;;;6.80;99.90;;;;;;4858612;29;20049;-89
2022/01/18 09:11:02;;;;;;;29.75;6.85;;;6.80;99.90;;;;;;4847411;29;20052;-89
2022/01/18 09:13:28;;;;;;;31.60;7.97;;;6.80;99.90;;;;;;4858425;29;20036;-88
2022/01/18 09:15:54;;;;;;;26.80;7.43;;;6.80;99.90;;;;;;4859281;29;20561;-90
2022/01/18 09:18:20;;;;;;;28.58;8.82;;;6.80;99.90;;;;;;4848888;29;20048;-90
2022/01/18 09:20:46;;;;;;;30.05;9.38;;;6.80;99.90;;;;;;4859082;29;20454;-87
2022/01/18 09:23:13;;;;;;;29.67;8.52;;;6.90;99.90;;;;;;4856338;29;20045;-90
2022/01/18 09:25:39;;;;;;;27.00;9.00;;;6.90;99.90;;;;;;4857861;29;20053;-90
2022/01/18 09:28:05;;;;;;;38.10;10.63;;;7.00;99.90;;;;;;4858879;29;20041;-89
2022/01/18 09:30:33;;;;;;;26.55;8.90;;;7.10;99.90;;;;;;4860470;29;20052;-88
2022/01/18 09:33:00;;;;;;;31.75;9.98;;;7.10;99.90;;;;;;4859549;29;20053;-89
2022/01/18 09:35:26;;;;;;;39.33;10.07;;;7.20;99.90;;;;;;4871385;29;20392;-89
2022/01/18 09:37:52;;;;;;;34.92;9.85;;;7.20;99.90;;;;;;4868611;29;20052;-90
2022/01/18 09:40:20;;;;;;;37.97;10.88;;;7.20;99.90;;;;;;4857892;29;20124;-91
2022/01/18 09:42:47;;;;;;;41.75;11.13;;;7.10;99.90;;;;;;4854540;29;20055;-91
2022/01/18 09:45:15;;;;;;;31.70;11.27;;;7.20;99.90;;;;;;4853295;29;20041;-88
2022/01/18 09:47:45;;;;;;;35.97;10.15;;;7.30;99.90;;;;;;4861313;29;20052;-91
2022/01/18 09:50:14;;;;;;;28.42;9.93;;;7.30;99.90;;;;;;4860845;29;20119;-89
2022/01/18 09:52:40;;;;;;;32.15;9.85;;;7.30;99.90;;;;;;4860173;29;20096;-90
2022/01/18 09:55:07;;;;;;;31.52;11.13;;;7.50;99.90;;;;;;4859789;29;20045;-91
2022/01/18 09:57:34;;;;;;;36.58;10.40;;;7.50;99.90;;;;;;4860151;29;20051;-89
2022/01/18 10:00:00;;;;;;;29.30;9.40;;;7.50;99.90;;;;;;4855900;29;20113;-91
2022/01/18 10:02:26;;;;;;;25.90;9.43;;;7.50;99.90;;;;;;4873597;29;20044;-90
2022/01/18 10:04:54;;;;;;;28.80;9.20;;;7.50;99.90;;;;;;4859096;29;20091;-91
2022/01/18 10:07:32;;;;;;;37.80;9.10;;;7.50;99.90;;;;;;4861631;29;20052;-90
2022/01/18 10:09:59;;;;;;;27.20;8.80;;;7.60;99.90;;;;;;4857915;29;20104;-90
2022/01/18 10:12:24;;;;;;;26.80;9.18;;;7.70;99.90;;;;;;4857517;29;20056;-88
2022/01/18 10:14:59;;;;;;;22.98;8.18;;;7.70;99.90;;;;;;4859550;29;20119;-88
2022/01/18 10:18:01;;;;;;;28.45;8.57;;;7.90;99.90;;;;;;4861074;29;20522;-88
2022/01/18 10:20:27;;;;;;;28.67;8.63;;;7.80;99.90;;;;;;4880506;29;20224;-90
2022/01/18 10:22:53;;;;;;;25.77;9.25;;;7.80;99.90;;;;;;4855385;29;20056;-91
2022/01/18 10:25:25;;;;;;;24.85;8.73;;;7.90;99.90;;;;;;4857108;29;20051;-89
2022/01/18 10:27:53;;;;;;;24.30;8.25;;;7.90;99.90;;;;;;4864911;29;20049;-93
2022/01/18 10:30:45;;;;;;;24.10;7.72;;;8.00;99.90;;;;;;4873126;29;20033;-88
2022/01/18 10:33:17;;;;;;;25.85;8.55;;;7.90;99.90;;;;;;4860859;29;20454;-88
2022/01/18 10:36:05;;;;;;;24.15;7.72;;;7.90;99.90;;;;;;4867460;29;20057;-92
2022/01/18 10:38:31;;;;;;;29.77;8.60;;;8.00;99.90;;;;;;4870124;29;20472;-89
2022/01/18 10:40:57;;;;;;;26.83;8.52;;;8.00;99.90;;;;;;4864314;29;20041;-90
2022/01/18 10:43:30;;;;;;;25.00;8.38;;;8.00;99.90;;;;;;4866830;29;20131;-90
2022/01/18 10:46:13;;;;;;;25.83;8.57;;;7.90;99.90;;;;;;4864109;29;20076;-89
2022/01/18 10:48:48;;;;;;;29.17;8.25;;;7.80;99.90;;;;;;4861280;29;20052;-90
2022/01/18 10:51:28;;;;;;;24.42;8.55;;;7.90;99.90;;;;;;4864269;29;20103;-93
2022/01/18 10:53:59;;;;;;;21.98;7.70;;;7.90;99.90;;;;;;4862470;29;20065;-90
2022/01/18 10:56:25;;;;;;;27.17;8.85;;;8.00;99.90;;;;;;4854318;29;20044;-87
2022/01/18 10:58:57;;;;;;;28.30;8.05;;;8.00;99.90;;;;;;4860189;29;20045;-86
2022/01/18 11:01:23;;;;;;;27.27;7.75;;;8.00;99.90;;;;;;4891821;29;20049;-87
2022/01/18 11:04:12;;;;;;;25.67;7.05;;;8.00;99.90;;;;;;4875853;29;20463;-86
2022/01/18 11:06:39;;;;;;;21.27;5.90;;;8.00;99.90;;;;;;4857377;29;20050;-88
2022/01/18 11:09:13;;;;;;;17.23;6.47;;;8.10;99.90;;;;;;4860628;29;20049;-87
2022/01/18 11:11:47;;;;;;;23.45;6.60;;;8.10;99.90;;;;;;4861211;29;20104;-87
2022/01/18 11:14:20;;;;;;;20.00;5.90;;;8.10;99.90;;;;;;4862181;29;20470;-87
2022/01/18 11:16:50;;;;;;;25.45;7.03;;;8.20;99.90;;;;;;4861907;29;20044;-86
2022/01/18 11:19:30;;;;;;;20.05;5.82;;;8.20;99.90;;;;;;4865113;29;20047;-87
2022/01/18 11:22:06;;;;;;;19.85;4.60;;;8.10;99.90;;;;;;4847630;29;20037;-86
2022/01/18 11:24:34;;;;;;;18.83;5.72;;;7.90;99.90;;;;;;4860712;29;20523;-87
2022/01/18 11:27:01;;;;;;;20.55;5.45;;;8.20;99.90;;;;;;4851934;29;20061;-87
2022/01/18 11:29:27;;;;;;;20.10;4.47;;;8.30;99.90;;;;;;4855847;29;20076;-86
2022/01/18 11:31:54;;;;;;;19.38;4.70;;;8.20;99.90;;;;;;4861752;29;20045;-87
2022/01/18 11:34:34;;;;;;;16.42;5.00;;;8.10;99.90;;;;;;4878860;29;20044;-86
2022/01/18 11:37:15;;;;;;;20.33;4.78;;;8.00;99.90;;;;;;4862748;29;20775;-86
2022/01/18 11:39:41;;;;;;;23.85;5.85;;;8.00;99.90;;;;;;4857169;29;20045;-86
2022/01/18 11:42:12;;;;;;;17.55;4.53;;;8.00;99.90;;;;;;4861078;29;20411;-86
2022/01/18 11:44:39;;;;;;;17.70;4.72;;;8.00;99.90;;;;;;4853515;29;20538;-87
2022/01/18 11:47:08;;;;;;;12.63;4.40;;;8.00;99.90;;;;;;4853723;29;20140;-87
2022/01/18 11:49:34;;;;;;;17.80;4.55;;;8.00;99.90;;;;;;4867611;29;20496;-87
2022/01/18 11:52:05;;;;;;;13.02;4.50;;;8.10;99.90;;;;;;4844261;29;20064;-86
2022/01/18 11:54:38;;;;;;;14.00;4.75;;;8.10;99.90;;;;;;4853326;29;20087;-87
2022/01/18 11:57:24;;;;;;;12.35;4.63;;;8.10;99.90;;;;;;4874113;29;20057;-87
2022/01/18 11:59:51;;;;;;;18.98;4.13;;;8.10;99.90;;;;;;4874017;29;20049;-85
2022/01/18 12:02:25;;;;;;;23.67;4.60;;;8.00;99.90;;;;;;4860421;29;20048;-87
2022/01/18 12:04:54;;;;;;;17.05;4.00;;;8.10;99.90;;;;;;4877389;29;20041;-87
2022/01/18 12:07:38;;;;;;;12.77;4.10;;;8.20;99.90;;;;;;4861721;29;20053;-87
2022/01/18 12:10:06;;;;;;;21.67;5.15;;;8.20;99.90;;;;;;4862573;29;20500;-87
2022/01/18 12:12:41;;;;;;;16.75;4.63;;;8.20;99.90;;;;;;4859771;29;20037;-86
2022/01/18 12:15:16;;;;;;;16.08;4.30;;;8.20;99.90;;;;;;4848862;29;20075;-87
2022/01/18 12:17:53;;;;;;;16.95;4.43;;;8.30;99.90;;;;;;4877923;29;20059;-85
2022/01/18 12:20:34;;;;;;;16.08;4.20;;;8.40;99.90;;;;;;4854063;29;20043;-87
2022/01/18 12:23:13;;;;;;;17.25;4.20;;;8.30;99.90;;;;;;4860221;29;20056;-87
2022/01/18 12:25:58;;;;;;;14.45;3.70;;;8.40;99.90;;;;;;4857065;29;20101;-88
2022/01/18 12:28:45;;;;;;;20.70;4.47;;;8.50;99.90;;;;;;4866179;29;20180;-88
2022/01/18 12:31:40;;;;;;;14.82;4.60;;;8.50;99.90;;;;;;4856674;29;20523;-87
2022/01/18 12:34:32;;;;;;;10.15;3.70;;;8.50;99.90;;;;;;4860728;29;20797;-85
2022/01/18 12:37:24;;;;;;;15.10;4.70;;;8.30;99.90;;;;;;4872628;29;20052;-87
2022/01/18 12:39:49;;;;;;;15.45;4.50;;;8.30;99.90;;;;;;4872934;29;20566;-87
2022/01/18 12:45:10;;;;;;;18.70;4.53;;;8.30;99.90;;;;;;4875102;29;20411;-87
2022/01/18 12:47:44;;;;;;;14.60;4.50;;;8.30;99.90;;;;;;4893138;29;20515;-88
2022/01/18 12:50:11;;;;;;;17.90;6.03;;;8.20;99.90;;;;;;4863133;29;20507;-87
2022/01/18 12:52:53;;;;;;;21.83;5.40;;;8.20;99.90;;;;;;4851305;29;20045;-87
2022/01/18 12:55:38;;;;;;;17.55;4.93;;;8.30;99.90;;;;;;4867111;29;20131;-86
2022/01/18 12:58:09;;;;;;;17.92;5.90;;;8.30;99.90;;;;;;4861141;29;20052;-86
2022/01/18 13:00:45;;;;;;;17.42;5.25;;;8.30;99.90;;;;;;4845175;29;20063;-87
2022/01/18 13:03:20;;;;;;;21.20;5.70;;;8.10;99.90;;;;;;4871870;29;20040;-92
2022/01/18 13:05:47;;;;;;;20.70;7.20;;;8.20;99.90;;;;;;4877993;29;20060;-87
2022/01/18 13:08:15;;;;;;;26.52;6.70;;;8.20;99.90;;;;;;4857555;29;20088;-87
2022/01/18 13:10:50;;;;;;;21.48;6.68;;;8.30;99.90;;;;;;4859144;29;20488;-85
2022/01/18 13:13:20;;;;;;;18.75;6.28;;;8.30;99.90;;;;;;4876380;29;20573;-86
2022/01/18 13:16:03;;;;;;;23.88;7.00;;;8.20;99.90;;;;;;4876721;29;20053;-86
2022/01/18 13:24:42;;;;;;;27.27;6.97;;;8.20;99.90;;;;;;4874258;29;20084;-86
2022/01/18 13:27:12;;;;;;;24.42;7.60;;;8.00;99.90;;;;;;4876236;29;20089;-87
2022/01/18 13:29:38;;;;;;;26.00;7.13;;;8.20;99.90;;;;;;4876584;29;20059;-87
2022/01/18 13:32:08;;;;;;;23.30;7.60;;;8.20;99.90;;;;;;4876600;29;20041;-87
2022/01/18 13:34:37;;;;;;;22.45;7.40;;;8.20;99.90;;;;;;4859618;29;20722;-86
2022/01/18 13:37:07;;;;;;;25.67;7.35;;;8.20;99.90;;;;;;4857238;29;20507;-85
2022/01/18 13:39:38;;;;;;;28.38;7.75;;;8.30;99.90;;;;;;4868373;29;20430;-87
2022/01/18 13:42:05;;;;;;;22.15;7.07;;;8.20;99.90;;;;;;4889727;29;20060;-89
2022/01/18 13:44:31;;;;;;;26.58;7.85;;;8.30;99.90;;;;;;4868774;29;20088;-89
2022/01/18 13:47:18;;;;;;;23.55;7.65;;;8.20;99.90;;;;;;4858053;29;20056;-87
2022/01/18 13:49:44;;;;;;;25.25;7.70;;;8.10;99.90;;;;;;4850628;29;20139;-88
2022/01/18 13:52:14;;;;;;;23.70;7.30;;;8.20;99.90;;;;;;4867180;29;20200;-88
2022/01/18 13:54:52;;;;;;;20.98;7.63;;;8.20;99.90;;;;;;4852408;29;20053;-88
2022/01/18 13:57:20;;;;;;;22.77;7.78;;;8.20;99.90;;;;;;4857673;29;20052;-87
2022/01/18 13:59:49;;;;;;;17.00;6.72;;;8.10;99.90;;;;;;4860447;29;20114;-87
2022/01/18 14:02:21;;;;;;;27.05;7.20;;;8.10;99.90;;;;;;4857280;29;20052;-86
2022/01/18 14:05:05;;;;;;;23.33;8.25;;;8.00;99.90;;;;;;4875752;29;20127;-88
2022/01/18 14:07:31;;;;;;;22.45;7.45;;;8.00;99.90;;;;;;4860794;29;20060;-86
2022/01/18 14:10:00;;;;;;;21.38;7.78;;;7.90;99.90;;;;;;4860271;29;20045;-87
2022/01/18 14:12:36;;;;;;;25.08;7.20;;;7.90;99.90;;;;;;4853988;29;20041;-86